Time;durP1;ratioP1;P1;durP2;ratioP2;P2;SDS_P1;SDS_P2;PMS_P1;PMS_P2;Temp;Humidity;BMP_temperature;BMP_pressure;BME280_temperature;BME280_humidity;BME280_pressure;Samples;Min_cycle;Max_cycle;Signal;HPM_P1;HPM_P2
2021/08/15 00:00:27;;;;;;;18.13;9.18;;;;;;;19.37;100.00;95203.09;5031987;28;20020;-53
2021/08/15 00:02:53;;;;;;;20.60;9.48;;;;;;;19.35;100.00;95205.34;5031877;28;20554;-48
2021/08/15 00:05:18;;;;;;;14.95;9.50;;;;;;;19.29;100.00;95203.88;5030506;28;20018;-50
2021/08/15 00:07:44;;;;;;;15.30;9.27;;;;;;;19.25;100.00;95199.41;5031614;28;20033;-49
2021/08/15 00:10:12;;;;;;;16.85;8.68;;;;;;;19.20;100.00;95194.91;5030634;28;20036;-52
2021/08/15 00:12:41;;;;;;;18.70;9.20;;;;;;;19.20;100.00;95196.84;5035281;28;20113;-52
2021/08/15 00:15:16;;;;;;;17.20;9.75;;;;;;;19.17;100.00;95190.13;5035738;28;20030;-55
2021/08/15 00:17:47;;;;;;;15.63;9.25;;;;;;;19.14;100.00;95185.34;5035443;28;20018;-57
2021/08/15 00:20:16;;;;;;;18.88;9.20;;;;;;;19.13;100.00;95172.88;5034194;28;20477;-55
2021/08/15 00:22:47;;;;;;;19.30;9.10;;;;;;;19.13;100.00;95170.16;5035487;28;20030;-52
2021/08/15 00:25:18;;;;;;;21.90;9.82;;;;;;;19.11;100.00;95165.06;5035536;28;20021;-52
2021/08/15 00:27:48;;;;;;;18.83;9.60;;;;;;;19.10;100.00;95157.22;5035391;28;20480;-53
2021/08/15 00:30:14;;;;;;;16.10;9.10;;;;;;;19.10;100.00;95155.31;5035230;28;20034;-53
2021/08/15 00:32:43;;;;;;;14.52;9.70;;;;;;;19.09;100.00;95153.69;5035248;28;20032;-54
2021/08/15 00:35:10;;;;;;;21.08;9.90;;;;;;;19.06;100.00;95145.38;5035246;28;20455;-54
2021/08/15 00:37:38;;;;;;;17.42;9.13;;;;;;;19.05;100.00;95143.78;5047516;28;20064;-56
2021/08/15 00:40:05;;;;;;;18.27;10.13;;;;;;;19.04;100.00;95139.47;5038034;28;20050;-54
2021/08/15 00:42:41;;;;;;;16.02;9.30;;;;;;;19.00;100.00;95131.19;5017622;28;20480;-51
2021/08/15 00:45:11;;;;;;;16.70;9.32;;;;;;;18.98;100.00;95127.16;5034924;28;20036;-56
2021/08/15 00:47:45;;;;;;;17.33;9.10;;;;;;;18.93;100.00;95121.91;5035473;28;20395;-55
2021/08/15 00:50:18;;;;;;;28.58;8.93;;;;;;;18.89;100.00;95118.22;5021354;28;20025;-54
2021/08/15 00:52:46;;;;;;;19.35;9.75;;;;;;;18.86;100.00;95111.50;5055055;28;20108;-56
2021/08/15 00:55:20;;;;;;;15.65;9.50;;;;;;;18.86;100.00;95110.69;5036965;28;20492;-57
2021/08/15 00:57:46;;;;;;;18.90;9.25;;;;;;;18.83;100.00;95106.72;5054755;28;20503;-53
2021/08/15 01:00:12;;;;;;;15.95;9.25;;;;;;;18.79;100.00;95108.47;5054623;28;20040;-52
2021/08/15 01:02:48;;;;;;;16.98;9.80;;;;;;;18.77;100.00;95099.81;5054766;28;20109;-51
2021/08/15 01:05:13;;;;;;;17.17;9.55;;;;;;;18.74;100.00;95100.47;5054702;28;20510;-51
2021/08/15 01:07:40;;;;;;;17.95;8.88;;;;;;;18.72;100.00;95106.22;5036571;28;20041;-53
2021/08/15 01:10:10;;;;;;;15.60;9.25;;;;;;;18.72;100.00;95098.06;5054376;28;20091;-54
2021/08/15 01:12:51;;;;;;;15.43;9.45;;;;;;;18.70;100.00;95086.75;5054708;28;20058;-55
2021/08/15 01:15:20;;;;;;;16.05;9.27;;;;;;;18.67;100.00;95086.56;5054642;28;20025;-54
2021/08/15 01:17:46;;;;;;;17.02;9.27;;;;;;;18.63;100.00;95086.34;5054506;28;20773;-56
2021/08/15 01:20:15;;;;;;;13.63;8.57;;;;;;;18.61;100.00;95082.38;5036766;28;20104;-55
2021/08/15 01:22:48;;;;;;;17.27;9.15;;;;;;;18.56;100.00;95080.63;5035857;28;20108;-51
2021/08/15 01:25:16;;;;;;;;;;;;;;;18.52;100.00;95072.28;5054922;28;20594;-49
2021/08/15 01:27:43;;;;;;;22.30;9.90;;;;;;;18.49;100.00;95072.94;5036308;28;20299;-52
2021/08/15 01:30:15;;;;;;;22.00;9.40;;;;;;;18.47;100.00;95067.03;5054309;28;20133;-50
2021/08/15 01:32:44;;;;;;;21.15;9.15;;;;;;;18.42;100.00;95071.78;5036619;28;20472;-48
2021/08/15 01:35:13;;;;;;;14.60;8.48;;;;;;;18.37;100.00;95067.31;5053975;28;20033;-50
2021/08/15 01:37:44;;;;;;;18.48;9.05;;;;;;;18.35;100.00;95058.69;5053895;28;20559;-55
2021/08/15 01:40:23;;;;;;;16.30;8.68;;;;;;;18.30;100.00;95047.97;5035936;28;20052;-53
2021/08/15 01:42:53;;;;;;;19.35;9.60;;;;;;;18.27;100.00;95051.31;5034085;28;20021;-52
2021/08/15 01:45:22;;;;;;;16.80;8.70;;;;;;;18.23;100.00;95053.88;5033801;28;20029;-54
2021/08/15 01:47:53;;;;;;;18.70;9.00;;;;;;;18.21;100.00;95049.84;5033747;28;20472;-56
2021/08/15 01:50:29;;;;;;;16.75;9.07;;;;;;;18.18;100.00;95040.44;5033668;28;20029;-53
2021/08/15 01:52:57;;;;;;;16.77;9.25;;;;;;;18.17;100.00;95038.84;5033809;28;20034;-56
2021/08/15 01:55:22;;;;;;;19.67;8.75;;;;;;;18.14;100.00;95036.78;5033738;28;20029;-55
2021/08/15 01:57:51;;;;;;;14.57;8.18;;;;;;;18.11;100.00;95039.28;5033580;28;20022;-51
2021/08/15 02:00:22;;;;;;;15.73;8.55;;;;;;;18.07;100.00;95041.03;5015958;28;20018;-54
2021/08/15 02:02:50;;;;;;;20.40;9.18;;;;;;;18.05;100.00;95040.56;5033591;28;20480;-54
2021/08/15 02:05:18;;;;;;;15.38;8.70;;;;;;;18.01;100.00;95024.09;5015870;28;20558;-55
2021/08/15 02:07:47;;;;;;;15.75;9.15;;;;;;;17.99;100.00;95029.03;5033279;28;20021;-52
2021/08/15 02:10:16;;;;;;;21.17;9.40;;;;;;;17.98;100.00;95018.53;5015649;28;20167;-52
2021/08/15 02:12:41;;;;;;;17.90;9.55;;;;;;;17.99;100.00;95010.06;5033156;28;20076;-53
2021/08/15 02:15:08;;;;;;;19.98;9.40;;;;;;;17.98;100.00;95003.06;4996150;28;20033;-56
2021/08/15 02:17:39;;;;;;;13.23;8.68;;;;;;;17.96;100.00;94999.88;5029401;28;20127;-57
2021/08/15 02:20:12;;;;;;;17.35;9.10;;;;;;;17.91;100.00;94994.59;5033338;28;20119;-54
2021/08/15 02:22:42;;;;;;;19.13;8.65;;;;;;;17.88;100.00;94990.59;5015694;28;20059;-55
2021/08/15 02:25:12;;;;;;;16.42;9.07;;;;;;;17.88;100.00;94992.50;5033396;28;20026;-50
2021/08/15 02:27:44;;;;;;;23.67;10.27;;;;;;;17.87;100.00;94972.72;5033166;28;20028;-53
2021/08/15 02:30:20;;;;;;;17.52;9.07;;;;;;;17.89;100.00;94975.13;5033121;28;20112;-49
2021/08/15 02:32:48;;;;;;;22.27;9.45;;;;;;;17.90;100.00;94974.81;5033100;28;20362;-48
2021/08/15 02:35:19;;;;;;;17.58;9.30;;;;;;;17.90;100.00;94968.59;5014915;28;20569;-50
2021/08/15 02:37:51;;;;;;;19.27;8.75;;;;;;;17.87;100.00;94959.19;5026755;28;20530;-51
2021/08/15 02:40:19;;;;;;;18.00;8.85;;;;;;;17.86;100.00;94959.50;5034994;28;20100;-50
2021/08/15 02:42:49;;;;;;;19.35;8.95;;;;;;;17.84;100.00;94959.81;5033572;28;20107;-53
2021/08/15 02:45:17;;;;;;;14.55;9.15;;;;;;;17.86;100.00;94960.31;5033397;28;20108;-52
2021/08/15 02:47:46;;;;;;;13.48;8.70;;;;;;;17.93;100.00;94957.94;5032657;28;20029;-53
2021/08/15 02:50:13;;;;;;;23.25;10.10;;;;;;;17.91;100.00;94948.53;5032473;28;20033;-54
2021/08/15 02:52:38;;;;;;;20.55;10.07;;;;;;;17.89;100.00;94940.69;5031541;28;20112;-55
2021/08/15 02:55:10;;;;;;;19.52;9.60;;;;;;;17.84;100.00;94937.34;5031425;28;20120;-47
2021/08/15 02:57:36;;;;;;;21.20;9.73;;;;;;;17.84;100.00;94942.75;5032652;28;20025;-50
2021/08/15 03:00:11;;;;;;;17.00;9.63;;;;;;;17.80;100.00;94939.06;5031325;28;20028;-53
2021/08/15 03:02:39;;;;;;;21.08;9.73;;;;;;;17.74;100.00;94933.00;5032434;28;20029;-53
2021/08/15 03:05:23;;;;;;;17.70;8.82;;;;;;;17.71;100.00;94944.47;5031335;28;20602;-55
2021/08/15 03:07:48;;;;;;;19.42;9.00;;;;;;;17.65;100.00;94938.34;5032489;28;20028;-54
2021/08/15 03:10:23;;;;;;;16.15;8.80;;;;;;;17.61;100.00;94942.00;5032457;28;20388;-54
2021/08/15 03:12:51;;;;;;;22.45;8.98;;;;;;;17.62;100.00;94946.31;5032369;28;20017;-53
2021/08/15 03:15:18;;;;;;;21.83;10.02;;;;;;;17.60;100.00;94946.63;5032409;28;20026;-54
2021/08/15 03:17:44;;;;;;;16.55;8.45;;;;;;;17.56;100.00;94936.72;5032292;28;20026;-48
2021/08/15 03:20:10;;;;;;;22.35;9.25;;;;;;;17.51;100.00;94945.78;5014878;28;20028;-54
2021/08/15 03:22:47;;;;;;;18.88;9.45;;;;;;;17.44;100.00;94942.72;5031193;28;20110;-55
2021/08/15 03:25:17;;;;;;;14.15;9.13;;;;;;;17.38;100.00;94935.84;5032251;28;20022;-55
2021/08/15 03:27:45;;;;;;;18.92;9.80;;;;;;;17.42;100.00;94941.44;5032099;28;20051;-54
2021/08/15 03:30:15;;;;;;;21.30;9.25;;;;;;;17.41;100.00;94932.53;5031287;28;20138;-54
2021/08/15 03:32:40;;;;;;;21.88;9.55;;;;;;;17.39;100.00;94922.00;5032265;28;20369;-56
2021/08/15 03:35:06;;;;;;;19.10;10.00;;;;;;;17.42;100.00;94917.88;5032218;28;20041;-55
2021/08/15 03:37:35;;;;;;;18.70;8.68;;;;;;;17.41;100.00;94920.91;5030689;28;20139;-55
2021/08/15 03:40:04;;;;;;;15.50;9.32;;;;;;;17.41;100.00;94907.34;5031759;28;20025;-53
2021/08/15 03:42:32;;;;;;;20.92;8.95;;;;;;;17.39;100.00;94904.97;5032199;28;20033;-56
2021/08/15 03:45:00;;;;;;;18.90;9.40;;;;;;;17.37;100.00;94899.06;5032184;28;20025;-51
2021/08/15 03:47:32;;;;;;;23.05;9.98;;;;;;;17.34;100.00;94888.84;5034901;28;20028;-53
2021/08/15 03:50:02;;;;;;;15.93;8.93;;;;;;;17.31;100.00;94894.88;5035928;28;20037;-53
2021/08/15 03:52:36;;;;;;;22.23;10.23;;;;;;;17.30;100.00;94883.25;5035902;28;20383;-51
2021/08/15 03:55:21;;;;;;;26.92;9.02;;;;;;;17.29;100.00;94881.66;5036046;28;20489;-50
2021/08/15 03:57:46;;;;;;;21.35;9.52;;;;;;;17.25;100.00;94867.16;5036004;28;20381;-54
2021/08/15 04:00:12;;;;;;;19.00;9.35;;;;;;;17.28;100.00;94869.25;5036029;28;20031;-48
2021/08/15 04:02:45;;;;;;;19.15;9.07;;;;;;;17.27;100.00;94856.81;5035918;28;20507;-47
2021/08/15 04:05:13;;;;;;;12.95;8.05;;;;;;;17.27;100.00;94848.72;5035802;28;20025;-48
2021/08/15 04:07:41;;;;;;;17.40;8.93;;;;;;;17.29;100.00;94841.06;5035730;28;20034;-48
2021/08/15 04:10:09;;;;;;;16.52;9.50;;;;;;;17.31;100.00;94828.00;5035740;28;20025;-51
2021/08/15 04:12:46;;;;;;;17.02;9.55;;;;;;;17.34;100.00;94832.00;5034502;28;20064;-48
2021/08/15 04:15:11;;;;;;;17.95;9.15;;;;;;;17.34;100.00;94832.00;5018222;28;20397;-48
2021/08/15 04:17:37;;;;;;;15.52;9.13;;;;;;;17.35;100.00;94826.25;5033863;28;20026;-48
2021/08/15 04:20:03;;;;;;;21.92;9.07;;;;;;;17.34;100.00;94827.38;5035639;28;20380;-48
2021/08/15 04:22:28;;;;;;;20.85;8.77;;;;;;;17.32;100.00;94828.81;5035503;28;20090;-53
2021/08/15 04:25:03;;;;;;;18.48;8.75;;;;;;;17.33;100.00;94823.06;5035597;28;20112;-53
2021/08/15 04:27:30;;;;;;;23.45;9.20;;;;;;;17.31;100.00;94822.59;5035383;28;20021;-53
2021/08/15 04:29:56;;;;;;;18.98;8.77;;;;;;;17.30;100.00;94833.75;5034049;28;20428;-54
2021/08/15 04:32:24;;;;;;;21.52;9.45;;;;;;;17.25;100.00;94831.16;5035330;28;20063;-52
2021/08/15 04:34:55;;;;;;;17.17;8.25;;;;;;;17.23;100.00;94831.47;5035315;28;20028;-53
2021/08/15 04:37:20;;;;;;;14.90;8.25;;;;;;;17.23;100.00;94826.06;5046063;28;20511;-52
2021/08/15 04:39:46;;;;;;;21.55;9.90;;;;;;;17.26;100.00;94822.75;5040587;28;20056;-55
2021/08/15 04:42:14;;;;;;;18.85;9.45;;;;;;;17.27;100.00;94820.84;5035699;28;20431;-55
2021/08/15 04:44:40;;;;;;;17.58;9.27;;;;;;;17.28;100.00;94823.22;5017304;28;20028;-51
2021/08/15 04:47:12;;;;;;;15.10;9.00;;;;;;;17.30;100.00;94826.41;5035062;28;20022;-56
2021/08/15 04:49:38;;;;;;;16.90;9.23;;;;;;;17.29;100.00;94819.41;5017467;28;20034;-53
2021/08/15 04:52:06;;;;;;;17.17;8.90;;;;;;;17.29;100.00;94810.50;5035163;28;20120;-54
2021/08/15 04:54:33;;;;;;;20.42;9.60;;;;;;;17.30;100.00;94810.19;5017441;28;20029;-49
2021/08/15 04:57:01;;;;;;;16.70;9.55;;;;;;;17.35;100.00;94815.44;5034728;28;20068;-50
2021/08/15 04:59:26;;;;;;;14.50;8.85;;;;;;;17.37;100.00;94813.22;5034894;28;20026;-48
2021/08/15 05:01:55;;;;;;;17.42;9.85;;;;;;;17.37;100.00;94807.03;5035038;28;20022;-48
2021/08/15 05:04:26;;;;;;;15.57;9.23;;;;;;;17.41;100.00;94801.75;5034902;28;20052;-53
2021/08/15 05:06:58;;;;;;;18.17;10.05;;;;;;;17.47;100.00;94798.59;5034850;28;20045;-48
2021/08/15 05:09:23;;;;;;;15.68;9.35;;;;;;;17.56;100.00;94804.03;5034641;28;20017;-49
2021/08/15 05:11:52;;;;;;;15.77;9.48;;;;;;;17.71;100.00;94795.50;5034119;28;20036;-48
2021/08/15 05:14:17;;;;;;;24.67;10.77;;;;;;;17.80;100.00;94788.19;5034457;28;20037;-48
2021/08/15 05:16:42;;;;;;;16.92;12.98;;;;;;;17.91;100.00;94788.66;5034508;28;20025;-48
2021/08/15 05:19:11;;;;;;;20.10;11.10;;;;;;;18.02;100.00;94798.09;5034462;28;20366;-51
2021/08/15 05:21:36;;;;;;;14.13;9.80;;;;;;;18.11;100.00;94793.44;5034415;28;20108;-50
2021/08/15 05:24:05;;;;;;;20.67;11.13;;;;;;;18.19;100.00;94791.84;5034279;28;20104;-48
2021/08/15 05:26:30;;;;;;;19.70;10.55;;;;;;;18.21;100.00;94781.47;5034267;28;20017;-50
2021/08/15 05:28:58;;;;;;;13.65;9.45;;;;;;;18.24;100.00;94781.66;5016463;28;20025;-48
2021/08/15 05:31:23;;;;;;;16.23;11.00;;;;;;;18.28;100.00;94784.50;5034255;28;20109;-52
2021/08/15 05:33:51;;;;;;;19.85;10.73;;;;;;;18.40;100.00;94778.44;5034556;28;20159;-52
2021/08/15 05:36:19;;;;;;;16.95;10.40;;;;;;;18.52;100.00;94771.22;5033835;28;20021;-55
2021/08/15 05:38:44;;;;;;;15.38;10.82;;;;;;;18.70;100.00;94771.22;5033865;28;20021;-53
2021/08/15 05:41:13;;;;;;;21.33;11.70;;;;;;;18.85;100.00;94764.47;5025756;28;20079;-51
2021/08/15 05:43:41;;;;;;;22.50;10.75;;;;;;;19.02;100.00;94759.78;5033963;28;20388;-50
2021/08/15 05:46:07;;;;;;;16.55;11.35;;;;;;;19.18;100.00;94765.44;5033940;28;20106;-51
2021/08/15 05:48:40;;;;;;;17.40;11.05;;;;;;;19.37;100.00;94778.63;5033882;28;20029;-51
2021/08/15 05:51:08;;;;;;;17.30;10.48;;;;;;;19.56;100.00;94770.09;5033814;28;20026;-54
2021/08/15 05:53:34;;;;;;;15.90;9.63;;;;;;;19.73;100.00;94767.25;5033612;28;20117;-49
2021/08/15 05:56:04;;;;;;;21.30;10.73;;;;;;;19.98;100.00;94769.00;5033709;28;20104;-56
2021/08/15 05:58:29;;;;;;;15.98;10.40;;;;;;;20.18;100.00;94764.66;5016308;28;20480;-52
2021/08/15 06:00:55;;;;;;;17.88;10.35;;;;;;;20.42;100.00;94764.00;5015989;28;20062;-54
2021/08/15 06:03:20;;;;;;;16.23;11.10;;;;;;;20.70;100.00;94749.78;5033666;28;20025;-54
2021/08/15 06:05:45;;;;;;;19.30;11.00;;;;;;;21.02;100.00;94742.69;5015521;28;20064;-53
2021/08/15 06:08:19;;;;;;;16.98;10.32;;;;;;;21.28;100.00;94739.69;5033363;28;20025;-57
2021/08/15 06:10:49;;;;;;;18.25;11.48;;;;;;;21.49;100.00;94724.00;5033230;28;20033;-56
2021/08/15 06:13:30;;;;;;;17.13;10.07;;;;;;;21.74;100.00;94704.88;5033445;28;20026;-54
2021/08/15 06:15:58;;;;;;;18.20;10.02;;;;;;;21.95;100.00;94681.75;5033252;28;20025;-56
2021/08/15 06:18:31;;;;;;;19.70;10.20;;;;;;;22.13;100.00;94657.72;5033270;28;20026;-58
2021/08/15 06:20:59;;;;;;;16.45;9.73;;;;;;;22.35;100.00;94625.53;5015537;28;20018;-57
2021/08/15 06:23:27;;;;;;;20.63;11.40;;;;;;;22.49;100.00;94599.44;5033316;28;20029;-52
2021/08/15 06:25:58;;;;;;;19.60;10.35;;;;;;;22.60;100.00;94577.84;5033007;28;20029;-60
2021/08/15 06:28:32;;;;;;;18.38;11.02;;;;;;;22.69;100.00;94550.38;5016007;28;20029;-58
2021/08/15 06:31:07;;;;;;;20.52;10.10;;;;;;;22.87;100.00;94535.22;5032538;28;20035;-59
2021/08/15 06:33:35;;;;;;;15.73;10.10;;;;;;;23.08;100.00;94526.69;5006808;28;20041;-54
2021/08/15 06:36:00;;;;;;;19.50;11.13;;;;;;;23.32;100.00;94507.28;5021847;28;20040;-58
2021/08/15 06:38:29;;;;;;;19.83;10.57;;;;;;;23.56;100.00;94506.22;5019858;28;20142;-55
2021/08/15 06:40:56;;;;;;;16.08;10.05;;;;;;;23.73;100.00;94502.25;5016300;28;20114;-59
2021/08/15 06:43:25;;;;;;;14.90;9.98;;;;;;;23.95;100.00;94498.75;5026357;28;20079;-53
2021/08/15 06:45:54;;;;;;;16.50;10.48;;;;;;;24.14;100.00;94502.59;5031983;28;20034;-59
2021/08/15 06:48:23;;;;;;;19.08;10.05;;;;;;;24.39;100.00;94508.50;5031811;28;20033;-59
2021/08/15 06:51:05;;;;;;;16.65;9.50;;;;;;;24.69;100.00;94523.09;5030549;28;20485;-58
2021/08/15 06:53:48;;;;;;;17.60;9.32;;;;;;;25.03;100.00;94558.81;5031935;28;20056;-58
2021/08/15 06:56:14;;;;;;;19.20;9.75;;;;;;;25.23;100.00;94589.66;5021612;28;20056;-59
2021/08/15 06:58:50;;;;;;;15.77;9.20;;;;;;;25.39;100.00;94621.19;5030080;28;20116;-60
2021/08/15 07:01:18;;;;;;;14.73;8.85;;;;;;;25.34;100.00;94668.13;5030733;28;20022;-58
2021/08/15 07:03:52;;;;;;;15.15;8.10;;;;;;;25.39;100.00;94711.69;5024112;28;20420;-59
2021/08/15 07:06:18;;;;;;;16.52;8.60;;;;;;;25.54;100.00;94717.41;5022175;28;20036;-56
2021/08/15 07:08:45;;;;;;;15.57;9.18;;;;;;;25.77;100.00;94703.66;5030962;28;20468;-56
2021/08/15 07:11:11;;;;;;;21.50;9.05;;;;;;;25.97;100.00;94727.84;5025816;28;20029;-59
2021/08/15 07:13:36;;;;;;;18.75;8.90;;;;;;;26.15;100.00;94762.97;5031423;28;20032;-57
2021/08/15 07:16:02;;;;;;;14.73;8.23;;;;;;;26.38;100.00;94804.13;5031580;28;20506;-59
2021/08/15 07:18:30;;;;;;;17.17;8.48;;;;;;;26.54;100.00;94827.47;5031062;28;20071;-58
2021/08/15 07:20:57;;;;;;;12.48;7.88;;;;;;;26.68;100.00;94831.53;5030363;28;20017;-60
2021/08/15 07:23:25;;;;;;;15.00;8.98;;;;;;;26.84;100.00;94838.44;5030051;28;20384;-57
2021/08/15 07:25:52;;;;;;;19.20;8.65;;;;;;;27.04;100.00;94857.53;5030045;28;20021;-53
2021/08/15 07:28:27;;;;;;;19.42;8.90;;;;;;;27.17;100.00;94911.09;5029767;28;20021;-53
2021/08/15 07:30:52;;;;;;;16.05;8.43;;;;;;;27.36;100.00;94927.44;5031256;28;20021;-54
2021/08/15 07:33:18;;;;;;;15.02;8.65;;;;;;;27.42;100.00;94941.63;5027994;28;20076;-54
2021/08/15 07:35:47;;;;;;;16.48;8.73;;;;;;;27.44;100.00;94950.28;5026034;28;20104;-58
2021/08/15 07:38:18;;;;;;;15.60;8.93;;;;;;;27.55;100.00;94962.22;5029427;28;20057;-59
2021/08/15 07:40:46;;;;;;;20.55;8.55;;;;;;;27.72;100.00;94971.88;5019296;28;20350;-59
2021/08/15 07:43:17;;;;;;;13.77;8.48;;;;;;;27.94;100.00;94976.41;5027464;28;20030;-59
2021/08/15 07:45:43;;;;;;;15.63;8.37;;;;;;;28.16;100.00;95015.97;5021325;28;20018;-59
2021/08/15 07:48:11;;;;;;;17.13;8.88;;;;;;;28.43;100.00;95013.06;5023922;28;20026;-58
2021/08/15 07:50:38;;;;;;;16.38;8.52;;;;;;;28.40;100.00;95033.91;5025721;28;20370;-62
2021/08/15 07:53:19;;;;;;;17.45;8.65;;;;;;;28.31;100.00;95033.44;5029512;28;20057;-58
2021/08/15 07:55:45;;;;;;;16.75;8.57;;;;;;;28.45;100.00;95027.28;5031104;28;20392;-56
2021/08/15 07:58:11;;;;;;;18.10;7.93;;;;;;;28.62;100.00;95029.38;5030730;28;20029;-57
2021/08/15 08:00:37;;;;;;;15.75;8.45;;;;;;;28.72;100.00;95058.97;5030983;28;20021;-53
2021/08/15 08:03:05;;;;;;;16.10;8.35;;;;;;;28.79;100.00;95017.69;5031014;28;20026;-54
2021/08/15 08:05:34;;;;;;;19.45;8.82;;;;;;;28.90;100.00;95048.13;5031059;28;20021;-56
2021/08/15 08:08:02;;;;;;;20.00;8.93;;;;;;;29.01;100.00;95026.16;5030659;28;20427;-54
2021/08/15 08:10:33;;;;;;;16.05;9.25;;;;;;;28.98;100.00;95051.72;5030920;28;20049;-55
2021/08/15 08:13:00;;;;;;;16.15;9.02;;;;;;;28.90;100.00;95044.59;5030838;28;20033;-57
2021/08/15 08:15:26;;;;;;;15.18;10.25;;;;;;;28.70;100.00;95066.06;5030916;28;20095;-57
2021/08/15 08:17:59;;;;;;;19.08;9.02;;;;;;;28.54;100.00;95060.78;5012907;28;20025;-57
2021/08/15 08:20:26;;;;;;;17.75;9.02;;;;;;;28.37;100.00;95047.66;5030941;28;20141;-57
2021/08/15 08:23:00;;;;;;;18.98;9.55;;;;;;;28.45;100.00;95002.47;4997074;28;20524;-59
2021/08/15 08:25:26;;;;;;;18.75;9.60;;;;;;;28.42;100.00;94973.72;5030688;28;20399;-59
2021/08/15 08:27:54;;;;;;;15.52;8.98;;;;;;;28.36;100.00;94997.28;5030248;28;20032;-58
2021/08/15 08:30:26;;;;;;;16.90;9.10;;;;;;;28.40;100.00;95020.13;5030716;28;20021;-59
2021/08/15 08:33:00;;;;;;;11.93;8.13;;;;;;;28.42;100.00;94957.19;5014798;28;20025;-60
2021/08/15 08:35:28;;;;;;;21.45;9.15;;;;;;;28.36;100.00;94983.50;5034480;28;20260;-56
2021/08/15 08:37:58;;;;;;;17.52;9.02;;;;;;;28.34;100.00;94985.06;5027490;28;20087;-57
2021/08/15 08:40:27;;;;;;;14.20;8.68;;;;;;;28.32;100.00;94973.63;5033090;28;20025;-61
2021/08/15 08:42:52;;;;;;;15.25;9.35;;;;;;;28.46;100.00;94973.75;5033044;28;20108;-58
2021/08/15 08:45:26;;;;;;;16.98;8.50;;;;;;;28.66;100.00;94980.59;5034334;28;20429;-59
2021/08/15 08:48:03;;;;;;;18.38;8.93;;;;;;;28.77;100.00;95039.34;5032567;28;20029;-59
2021/08/15 08:50:28;;;;;;;19.05;9.45;;;;;;;28.93;100.00;95047.34;5033978;28;20026;-59
2021/08/15 08:52:57;;;;;;;17.30;9.10;;;;;;;29.09;100.00;95049.81;5032785;28;20476;-61
2021/08/15 08:55:24;;;;;;;21.65;8.90;;;;;;;29.42;100.00;95046.09;5034098;28;20029;-60
2021/08/15 08:57:53;;;;;;;17.88;8.98;;;;;;;29.64;100.00;95069.88;5032350;28;20029;-59
2021/08/15 09:00:18;;;;;;;19.02;8.65;;;;;;;29.94;100.00;95121.25;5034049;28;20024;-59
2021/08/15 09:02:44;;;;;;;15.45;8.52;;;;;;;30.22;100.00;95117.84;5034140;28;20033;-56
2021/08/15 09:05:12;;;;;;;15.00;9.00;;;;;;;30.39;100.00;95119.84;5033762;28;20037;-59
2021/08/15 09:07:40;;;;;;;18.27;9.15;;;;;;;30.44;100.00;95168.44;5015995;28;20431;-59
2021/08/15 09:10:28;;;;;;;19.85;9.15;;;;;;;30.56;100.00;95171.63;5033929;28;20393;-58
2021/08/15 09:13:09;;;;;;;15.50;9.18;;;;;;;30.78;100.00;95199.34;5021922;28;20036;-57
2021/08/15 09:15:37;;;;;;;13.25;8.73;;;;;;;30.77;100.00;95230.97;5033695;28;20028;-57
2021/08/15 09:18:06;;;;;;;17.50;9.10;;;;;;;31.06;100.00;95245.66;5033297;28;20029;-58
2021/08/15 09:20:49;;;;;;;20.27;9.75;;;;;;;31.23;100.00;95291.16;5033570;28;20532;-59
2021/08/15 09:23:29;;;;;;;16.30;9.30;;;;;;;31.23;100.00;95275.34;5032481;28;20468;-57
2021/08/15 09:26:23;;;;;;;13.88;8.95;;;;;;;31.19;100.00;95221.94;5032124;28;20048;-58
2021/08/15 09:28:51;;;;;;;16.60;8.82;;;;;;;31.31;100.00;95165.44;5033434;28;20532;-57
2021/08/15 09:31:29;;;;;;;18.45;9.15;;;;;;;31.52;100.00;95244.91;5032187;28;20060;-59
2021/08/15 09:33:56;;;;;;;17.80;8.77;;;;;;;31.75;100.00;95283.31;5033499;28;20032;-59
2021/08/15 09:36:43;;;;;;;19.52;9.05;;;;;;;32.00;100.00;95267.44;5032453;28;20024;-55
2021/08/15 09:39:12;;;;;;;20.23;9.18;;;;;;;32.06;100.00;95326.03;5033374;28;20041;-59
2021/08/15 09:41:54;;;;;;;15.93;9.32;;;;;;;32.27;100.00;95320.47;5033339;28;20018;-58
2021/08/15 09:44:28;;;;;;;15.10;9.27;;;;;;;32.70;100.00;95334.25;5032100;28;20029;-59
2021/08/15 09:47:15;;;;;;;19.92;9.57;;;;;;;32.76;100.00;95313.19;5032436;28;20039;-56
2021/08/15 09:49:53;;;;;;;18.27;9.95;;;;;;;32.50;100.00;95336.66;5033257;28;20018;-60
2021/08/15 09:52:40;;;;;;;14.77;9.45;;;;;;;32.56;100.00;95332.28;5033027;28;20120;-59
2021/08/15 09:55:06;;;;;;;18.88;9.10;;;;;;;32.78;100.00;95244.22;5032840;28;20555;-58
2021/08/15 09:57:36;;;;;;;19.33;9.10;;;;;;;32.77;100.00;95306.47;5032421;28;20036;-58
2021/08/15 10:00:24;;;;;;;18.23;8.90;;;;;;;32.91;100.00;95336.19;5032913;28;20116;-59
2021/08/15 10:02:56;;;;;;;19.92;9.60;;;;;;;32.98;100.00;95370.22;5013783;28;20125;-58
2021/08/15 10:05:21;;;;;;;13.65;9.75;;;;;;;32.95;100.00;95364.69;5032702;28;20025;-59
2021/08/15 10:07:47;;;;;;;16.73;9.43;;;;;;;33.16;100.00;95370.16;5014527;28;20103;-57
2021/08/15 10:10:17;;;;;;;19.08;10.05;;;;;;;33.36;100.00;95371.25;5032696;28;20028;-58
2021/08/15 10:12:45;;;;;;;22.13;9.55;;;;;;;33.33;100.00;95351.81;5032790;28;20021;-59
2021/08/15 10:15:17;;;;;;;15.68;9.52;;;;;;;33.19;100.00;95368.53;5032712;28;20112;-59
2021/08/15 10:17:47;;;;;;;18.88;9.73;;;;;;;33.07;100.00;95367.81;5032179;28;20492;-59
2021/08/15 10:20:27;;;;;;;20.77;10.20;;;;;;;33.16;100.00;95359.84;5014767;28;20033;-57
2021/08/15 10:23:07;;;;;;;16.08;10.15;;;;;;;33.41;100.00;95370.81;5032534;28;20029;-57
2021/08/15 10:25:51;;;;;;;18.73;10.07;;;;;;;33.90;100.00;95365.38;5014884;28;20029;-58
2021/08/15 10:28:28;;;;;;;18.88;9.82;;;;;;;34.27;100.00;95362.66;5032080;28;20372;-61
2021/08/15 10:31:00;;;;;;;16.25;9.43;;;;;;;34.54;100.00;95382.31;5032114;28;20393;-58
2021/08/15 10:33:31;;;;;;;16.52;9.45;;;;;;;34.61;100.00;95380.66;5032363;28;20102;-57
2021/08/15 10:36:18;;;;;;;16.83;9.75;;;;;;;34.51;100.00;95380.34;5014538;28;20021;-59
2021/08/15 10:38:43;;;;;;;19.13;10.32;;;;;;;34.29;100.00;95387.28;5060835;22;20080;-57
2021/08/15 10:41:12;;;;;;;18.27;10.02;;;;;;;34.33;100.00;95390.03;5052973;28;20133;-58
2021/08/15 10:43:55;;;;;;;17.88;9.27;;;;;;;34.59;100.00;95392.19;5041956;28;20047;-57
2021/08/15 10:46:23;;;;;;;14.70;8.90;;;;;;;34.72;100.00;95407.16;5042194;28;20064;-58
2021/08/15 10:49:03;;;;;;;14.35;9.88;;;;;;;34.57;98.98;95403.75;5052712;28;20418;-58
2021/08/15 10:51:38;;;;;;;21.45;10.30;;;;;;;34.13;100.00;95387.81;5052840;28;20379;-58
2021/08/15 10:54:04;;;;;;;21.80;9.77;;;;;;;33.97;100.00;95357.75;5052449;28;20036;-58
2021/08/15 10:56:59;;;;;;;16.77;9.38;;;;;;;33.68;100.00;95370.28;5052458;28;20032;-57
2021/08/15 10:59:42;;;;;;;16.45;9.63;;;;;;;33.32;100.00;95356.56;5032735;28;20025;-58
2021/08/15 11:02:10;;;;;;;22.42;10.75;;;;;;;32.91;100.00;95355.59;5032657;28;20021;-58
2021/08/15 11:05:05;;;;;;;15.93;10.35;;;;;;;32.43;100.00;95342.22;5032697;28;20044;-58
2021/08/15 11:07:45;;;;;;;13.10;10.55;;;;;;;32.06;100.00;95334.34;5012895;28;20043;-58
2021/08/15 11:10:14;;;;;;;19.05;11.27;;;;;;;31.45;100.00;95314.91;5052187;28;20021;-58
2021/08/15 11:13:18;;;;;;;16.58;10.93;;;;;;;31.19;100.00;95282.03;5052227;28;20082;-55
2021/08/15 11:15:44;;;;;;;19.92;12.20;;;;;;;30.68;100.00;95242.38;5032561;28;20021;-57
2021/08/15 11:18:18;;;;;;;20.35;11.95;;;;;;;30.41;100.00;95210.69;5031152;28;20418;-58
2021/08/15 11:20:49;;;;;;;18.25;11.43;;;;;;;30.04;100.00;95181.28;5031235;28;20120;-56
2021/08/15 11:23:25;;;;;;;23.83;11.65;;;;;;;29.68;100.00;95145.22;5032486;28;20025;-56
2021/08/15 11:26:10;;;;;;;18.30;12.13;;;;;;;29.36;100.00;95120.16;5031355;28;20027;-56
2021/08/15 11:28:41;;;;;;;25.58;12.07;;;;;;;29.06;100.00;95070.69;5032427;28;20026;-58
2021/08/15 11:31:06;;;;;;;20.83;11.73;;;;;;;28.60;100.00;94990.38;5032383;28;20022;-55